Time;durP1;ratioP1;P1;durP2;ratioP2;P2;SDS_P1;SDS_P2;PMS_P1;PMS_P2;Temp;Humidity;BMP_temperature;BMP_pressure;BME280_temperature;BME280_humidity;BME280_pressure;Samples;Min_cycle;Max_cycle;Signal;HPM_P1;HPM_P2
2023/07/24 00:02:08;;;;;;;;;13.00;11.75;;;;;26.41;51.53;98546.28;4970153;28;45458;-62
2023/07/24 00:04:33;;;;;;;;;11.50;11.50;;;;;26.42;51.67;98542.56;4973015;28;45664;-62
2023/07/24 00:07:00;;;;;;;;;12.75;12.00;;;;;26.42;51.70;98534.44;4971096;28;45572;-62
2023/07/24 00:09:26;;;;;;;;;13.00;10.60;;;;;26.42;51.41;98534.44;4968666;28;45584;-62
2023/07/24 00:11:51;;;;;;;;;14.25;11.50;;;;;26.41;51.62;98528.19;4971299;28;45485;-63
2023/07/24 00:14:17;;;;;;;;;11.25;10.25;;;;;26.42;51.51;98534.44;4968712;28;45524;-62
2023/07/24 00:16:42;;;;;;;;;13.25;10.75;;;;;26.41;52.18;98532.75;4970088;28;46673;-62
2023/07/24 00:19:07;;;;;;;;;14.00;11.75;;;;;26.34;52.29;98512.84;4970200;28;45379;-62
2023/07/24 00:21:33;;;;;;;;;14.00;11.75;;;;;26.28;52.26;98519.78;4972767;28;45470;-62
2023/07/24 00:23:58;;;;;;;;;11.50;11.25;;;;;26.23;52.32;98514.06;4971268;28;45532;-62
2023/07/24 00:26:24;;;;;;;;;11.75;10.00;;;;;26.21;52.56;98505.28;4972778;28;45862;-62
2023/07/24 00:28:49;;;;;;;;;13.00;11.75;;;;;26.16;52.41;98504.09;4971092;28;45477;-62
2023/07/24 00:31:14;;;;;;;;;12.25;11.25;;;;;26.13;52.68;98491.81;4972654;28;45451;-62
2023/07/24 00:33:40;;;;;;;;;15.00;13.00;;;;;26.10;52.54;98496.72;4967015;28;45527;-62
2023/07/24 00:36:05;;;;;;;;;11.75;9.25;;;;;26.07;52.68;98492.50;4970523;28;45499;-62
2023/07/24 00:38:31;;;;;;;;;14.00;12.25;;;;;26.02;52.50;98484.06;4969279;28;45454;-62
2023/07/24 00:40:56;;;;;;;;;11.75;10.50;;;;;25.98;53.45;98475.47;4970755;28;45479;-62
2023/07/24 00:43:21;;;;;;;;;11.00;11.00;;;;;25.94;53.17;98473.31;4969508;28;45505;-62
2023/07/24 00:45:48;;;;;;;;;12.00;12.00;;;;;25.91;52.79;98485.31;4971393;28;47389;-62
2023/07/24 00:48:14;;;;;;;;;11.40;10.60;;;;;25.89;53.28;98468.44;4970975;28;45465;-62
2023/07/24 00:50:41;;;;;;;;;12.50;11.75;;;;;25.87;53.66;98454.25;4973096;28;45453;-62
2023/07/24 00:53:06;;;;;;;;;10.25;9.00;;;;;25.85;53.50;98456.28;4966289;28;45557;-62
2023/07/24 00:55:31;;;;;;;;;11.75;10.00;;;;;25.86;53.43;98466.06;4970418;28;46349;-62
2023/07/24 00:58:02;;;;;;;;;13.75;12.50;;;;;25.87;53.80;98454.25;4968517;28;45476;-62
2023/07/24 01:00:27;;;;;;;;;11.25;11.25;;;;;25.89;53.92;98446.81;4970459;28;45500;-62
2023/07/24 01:02:54;;;;;;;;;13.50;11.75;;;;;25.89;53.36;98440.56;4967358;28;45446;-62
2023/07/24 01:05:21;;;;;;;;;14.50;13.00;;;;;25.89;53.09;98435.19;4972546;28;45474;-62
2023/07/24 01:07:47;;;;;;;;;12.60;12.60;;;;;25.92;53.76;98438.38;4968255;28;45387;-62
2023/07/24 01:10:12;;;;;;;;;10.75;10.75;;;;;25.93;53.87;98442.75;4970845;28;45530;-62
2023/07/24 01:12:51;;;;;;;;;13.00;11.00;;;;;25.95;53.71;98443.44;4966335;28;45403;-62
2023/07/24 01:15:24;;;;;;;;;13.00;9.50;;;;;25.97;53.49;98449.50;4972435;28;45510;-62
2023/07/24 01:17:57;;;;;;;;;9.20;9.20;;;;;25.99;53.59;98449.31;4966154;28;45478;-62
2023/07/24 01:20:25;;;;;;;;;14.75;12.75;;;;;26.01;53.42;98455.38;4960649;28;45411;-62
2023/07/24 01:23:25;;;;;;;;;13.25;10.00;;;;;26.01;53.90;98423.81;4966314;28;45646;-62
2023/07/24 01:26:00;;;;;;;;;13.50;11.25;;;;;25.97;54.33;98427.06;4972634;28;46513;-62
2023/07/24 01:28:26;;;;;;;;;10.00;8.80;;;;;25.93;54.73;98425.72;4966822;28;45561;-62
2023/07/24 01:30:52;;;;;;;;;13.50;12.25;;;;;25.89;54.84;98403.59;4972502;28;45505;-62
2023/07/24 01:33:18;;;;;;;;;13.75;12.50;;;;;25.84;54.43;98397.88;4967687;28;45557;-62
2023/07/24 01:35:44;;;;;;;;;11.25;11.00;;;;;25.81;55.20;98394.69;4969759;28;46645;-62
2023/07/24 01:38:14;;;;;;;;;15.50;12.00;;;;;25.76;56.34;98370.94;4969464;28;45528;-62
2023/07/24 01:40:43;;;;;;;;;10.00;10.00;;;;;25.66;55.50;98383.78;4970447;28;45494;-62
2023/07/24 01:43:09;;;;;;;;;11.00;11.00;;;;;25.60;55.36;98398.81;4969725;28;45976;-62
2023/07/24 01:45:35;;;;;;;;;16.25;11.75;;;;;25.55;55.11;98408.44;4972875;28;45541;-62
2023/07/24 01:48:03;;;;;;;;;11.20;11.20;;;;;25.50;55.49;98410.81;4973659;28;45564;-62
2023/07/24 01:50:28;;;;;;;;;13.50;12.75;;;;;25.46;56.51;98398.69;4975441;28;45509;-62
2023/07/24 01:52:54;;;;;;;;;13.75;13.75;;;;;25.43;56.35;98421.47;4970480;28;45491;-62
2023/07/24 01:55:19;;;;;;;;;16.00;16.00;;;;;25.41;57.61;98461.28;4970999;28;46414;-62
2023/07/24 01:57:44;;;;;;;;;11.25;10.50;;;;;25.34;59.05;98482.69;4972279;28;45463;-62
2023/07/24 02:00:10;;;;;;;;;8.50;7.50;;;;;25.33;60.11;98624.03;4970435;28;45504;-64
2023/07/24 02:02:36;;;;;;;;;12.25;9.25;;;;;25.25;58.23;98734.69;4971928;28;45463;-62
2023/07/24 02:05:01;;;;;;;;;8.75;7.75;;;;;25.34;53.63;98606.84;4974831;28;45623;-62
2023/07/24 02:07:26;;;;;;;;;9.00;9.00;;;;;25.56;52.47;98637.72;4970242;28;45445;-66
2023/07/24 02:09:52;;;;;;;;;8.75;6.25;;;;;25.78;53.93;98711.03;4970211;28;45472;-64
2023/07/24 02:12:17;;;;;;;;;6.25;6.25;;;;;25.79;55.31;98764.88;4971624;28;45376;-64
2023/07/24 02:14:42;;;;;;;;;12.75;12.00;;;;;25.74;56.39;98737.50;4965986;28;47482;-64
2023/07/24 02:17:08;;;;;;;;;13.50;10.75;;;;;25.65;55.97;98731.25;4969801;28;45692;-66
2023/07/24 02:19:33;;;;;;;;;11.25;11.00;;;;;25.54;59.63;98495.84;4970996;28;45599;-65
2023/07/24 02:21:59;;;;;;;;;12.00;11.00;;;;;25.20;59.58;98316.13;4968196;28;45455;-66
2023/07/24 02:24:24;;;;;;;;;13.00;12.00;;;;;24.91;59.14;98316.66;4964884;28;46666;-66
2023/07/24 02:26:49;;;;;;;;;14.50;12.50;;;;;24.70;60.88;98470.88;4968763;28;45567;-66
2023/07/24 02:29:15;;;;;;;;;13.00;11.00;;;;;24.58;61.93;98519.88;4974300;28;46070;-66
2023/07/24 02:31:40;;;;;;;;;15.25;12.75;;;;;24.47;62.97;98569.50;4974219;28;45586;-66
2023/07/24 02:34:06;;;;;;;;;15.50;14.00;;;;;24.39;61.07;98574.88;4970590;28;45607;-66
2023/07/24 02:36:31;;;;;;;;;12.00;12.00;;;;;24.25;60.80;98572.81;4973644;28;45510;-66
2023/07/24 02:38:56;;;;;;;;;12.50;11.00;;;;;23.92;100.00;98598.69;4973586;28;45461;-66
2023/07/24 02:41:22;;;;;;;;;7.00;6.50;;;;;23.56;100.00;98608.69;4974708;28;45869;-66
2023/07/24 02:43:47;;;;;;;;;8.75;7.25;;;;;23.33;100.00;98600.19;4971557;28;45659;-66
2023/07/24 02:46:13;;;;;;;;;13.75;11.75;;;;;23.19;100.00;98595.38;4974583;28;45510;-66
2023/07/24 02:48:38;;;;;;;;;11.25;11.00;;;;;23.09;100.00;98586.53;4972845;28;45430;-66
2023/07/24 02:51:03;;;;;;;;;12.75;11.50;;;;;23.03;100.00;98589.84;4974866;28;45505;-66
2023/07/24 02:53:29;;;;;;;;;12.75;11.25;;;;;23.00;100.00;98580.22;4965406;28;45444;-65
2023/07/24 02:55:54;;;;;;;;;12.00;10.50;;;;;23.02;100.00;98563.94;4974270;28;45675;-66
2023/07/24 02:58:19;;;;;;;;;10.50;10.00;;;;;22.96;100.00;98557.31;4969138;28;45834;-66
2023/07/24 03:00:45;;;;;;;;;13.50;10.50;;;;;22.90;100.00;98549.91;4974818;28;45438;-65
2023/07/24 03:03:10;;;;;;;;;12.75;11.50;;;;;22.85;100.00;98561.09;4973887;28;45586;-65
2023/07/24 03:05:36;;;;;;;;;12.25;11.25;;;;;22.84;100.00;98558.56;4975012;28;45391;-66
2023/07/24 03:08:01;;;;;;;;;14.75;13.00;;;;;22.89;100.00;98553.56;4970015;28;45499;-67
2023/07/24 03:10:27;;;;;;;;;13.50;11.25;;;;;22.87;100.00;98548.34;4974558;28;45397;-67
2023/07/24 03:12:52;;;;;;;;;12.25;11.00;;;;;22.83;100.00;98540.75;4970041;28;46304;-64
2023/07/24 03:15:18;;;;;;;;;11.25;10.75;;;;;22.80;100.00;98524.91;4974391;28;45396;-63
2023/07/24 03:17:44;;;;;;;;;10.00;10.00;;;;;22.76;100.00;98513.63;4971170;28;45550;-63
2023/07/24 03:20:13;;;;;;;;;13.75;11.25;;;;;22.77;100.00;98509.97;4973194;28;45592;-58
2023/07/24 03:22:40;;;;;;;;;12.75;10.00;;;;;22.82;100.00;98498.72;4971865;28;46311;-58
2023/07/24 03:25:06;;;;;;;;;12.00;11.20;;;;;22.90;100.00;98510.41;4973515;28;45522;-58
2023/07/24 03:27:31;;;;;;;;;12.25;9.25;;;;;22.97;100.00;98516.84;4972409;28;45595;-58
2023/07/24 03:29:57;;;;;;;;;10.75;10.00;;;;;23.01;100.00;98538.06;4973843;28;45398;-58
2023/07/24 03:32:22;;;;;;;;;12.25;11.00;;;;;23.05;100.00;98531.38;4968807;28;46162;-59
2023/07/24 03:34:47;;;;;;;;;10.00;10.00;;;;;;;;4972656;28;45434;-59
2023/07/24 03:37:12;;;;;;;;;11.25;10.25;;;;;23.14;100.00;98538.50;4970389;28;45553;-59
2023/07/24 03:39:38;;;;;;;;;12.00;11.50;;;;;23.16;100.00;98552.66;4973065;28;45375;-59
2023/07/24 03:42:04;;;;;;;;;10.75;10.75;;;;;23.17;100.00;98536.34;4971930;28;46553;-59
2023/07/24 03:44:29;;;;;;;;;11.50;9.75;;;;;23.14;100.00;98547.41;4973992;28;45518;-59
2023/07/24 03:46:54;;;;;;;;;10.50;8.50;;;;;23.16;100.00;98566.09;4971952;28;45480;-59
2023/07/24 03:49:20;;;;;;;;;11.75;11.00;;;;;23.17;100.00;98546.25;4970934;28;45550;-59
2023/07/24 03:51:45;;;;;;;;;13.50;12.00;;;;;23.09;100.00;98546.22;4971025;28;46986;-60
2023/07/24 03:54:10;;;;;;;;;14.50;12.25;;;;;22.96;100.00;98552.78;4971879;28;45575;-60
2023/07/24 03:56:36;;;;;;;;;11.50;10.75;;;;;22.83;100.00;98541.59;4971695;28;46000;-60
2023/07/24 03:59:01;;;;;;;;;12.25;11.75;;;;;22.75;100.00;98532.56;4971625;28;45673;-58
2023/07/24 04:01:27;;;;;;;;;13.75;13.75;;;;;22.55;100.00;98527.34;4972752;28;46120;-58
2023/07/24 04:03:52;;;;;;;;;13.25;11.75;;;;;22.41;100.00;98529.69;4969524;28;45514;-58
2023/07/24 04:06:18;;;;;;;;;16.00;14.50;;;;;22.30;100.00;98514.59;4972665;28;45480;-58
2023/07/24 04:08:43;;;;;;;;;17.25;17.00;;;;;22.20;100.00;98476.22;4967014;28;45702;-58
2023/07/24 04:11:08;;;;;;;;;19.75;18.75;;;;;22.14;100.00;98410.53;4973403;28;46285;-59
2023/07/24 04:13:34;;;;;;;;;17.00;14.00;;;;;22.12;100.00;98379.50;4966688;28;45439;-59
2023/07/24 04:15:59;;;;;;;;;20.00;15.25;;;;;22.10;100.00;98419.91;4973137;28;45810;-58
2023/07/24 04:18:25;;;;;;;;;14.00;13.00;;;;;22.03;100.00;98533.41;4966857;28;45577;-59
2023/07/24 04:20:50;;;;;;;;;16.75;15.00;;;;;21.88;100.00;98574.13;4970904;28;46906;-58
2023/07/24 04:23:15;;;;;;;;;12.25;11.50;;;;;21.79;100.00;98604.50;4965845;28;45450;-59
2023/07/24 04:25:41;;;;;;;;;10.25;9.25;;;;;21.69;100.00;98638.56;4967371;28;45367;-60
2023/07/24 04:28:06;;;;;;;;;13.50;13.50;;;;;21.58;100.00;98580.56;4967650;28;45515;-59
2023/07/24 04:30:32;;;;;;;;;14.50;13.00;;;;;21.48;100.00;98515.34;4972846;28;46295;-60
2023/07/24 04:32:58;;;;;;;;;17.25;14.25;;;;;21.47;100.00;98559.22;4968973;28;45440;-58
2023/07/24 04:35:23;;;;;;;;;15.00;13.00;;;;;21.42;100.00;98582.13;4973145;28;45435;-58
2023/07/24 04:37:51;;;;;;;;;15.00;13.00;;;;;21.40;100.00;98570.69;4969724;28;45624;-58
2023/07/24 04:40:16;;;;;;;;;15.75;12.00;;;;;21.41;100.00;98609.94;4973080;28;46074;-58
2023/07/24 04:42:41;;;;;;;;;9.75;8.75;;;;;21.30;100.00;98615.44;4967515;28;45492;-67
2023/07/24 04:45:07;;;;;;;;;9.50;8.75;;;;;21.01;100.00;98626.97;4971924;28;45425;-60
2023/07/24 04:47:33;;;;;;;;;10.00;10.00;;;;;20.79;100.00;98628.03;4970133;28;45423;-60
2023/07/24 04:49:58;;;;;;;;;10.75;9.00;;;;;20.78;100.00;98652.31;4972324;28;45675;-61
2023/07/24 04:52:24;;;;;;;;;12.75;11.25;;;;;20.77;100.00;98677.41;4969677;28;45490;-60
2023/07/24 04:54:49;;;;;;;;;21.00;15.75;;;;;20.87;100.00;98665.72;4971973;28;45467;-60
2023/07/24 04:57:14;;;;;;;;;15.25;15.25;;;;;20.97;100.00;98664.88;4969530;28;45556;-60
2023/07/24 04:59:40;;;;;;;;;19.00;15.50;;;;;21.05;100.00;98654.34;4972109;28;46454;-60
2023/07/24 05:02:05;;;;;;;;;21.00;19.00;;;;;21.08;100.00;98699.63;4970186;28;45445;-60
2023/07/24 05:04:30;;;;;;;;;18.00;17.00;;;;;21.10;100.00;98789.66;4969463;28;45548;-62
2023/07/24 05:06:56;;;;;;;;;14.75;14.75;;;;;21.12;100.00;98762.69;4969893;28;45494;-61
2023/07/24 05:09:21;;;;;;;;;14.75;14.75;;;;;21.13;100.00;98753.66;4968146;28;46028;-60
2023/07/24 05:11:46;;;;;;;;;20.25;16.50;;;;;21.16;100.00;98773.00;4970326;28;45504;-60
2023/07/24 05:14:12;;;;;;;;;14.50;14.50;;;;;21.06;100.00;98769.47;4966029;28;45470;-63
2023/07/24 05:16:37;;;;;;;;;15.00;13.50;;;;;20.97;100.00;98756.00;4971326;28;45351;-62
2023/07/24 05:19:02;;;;;;;;;16.25;13.25;;;;;20.93;100.00;98792.97;4968948;28;45494;-63
2023/07/24 05:21:28;;;;;;;;;16.00;10.75;;;;;20.92;100.00;98854.75;4971213;28;45454;-63
2023/07/24 05:23:53;;;;;;;;;16.00;12.25;;;;;20.87;100.00;98814.94;4967488;28;45478;-63
2023/07/24 05:26:19;;;;;;;;;16.25;15.25;;;;;20.85;100.00;98793.63;4971445;28;45625;-63
2023/07/24 05:28:44;;;;;;;;;14.00;14.00;;;;;20.90;100.00;98806.63;4967451;28;47074;-63
2023/07/24 05:31:09;;;;;;;;;13.25;13.25;;;;;20.95;100.00;98785.63;4971881;28;45539;-63
2023/07/24 05:33:35;;;;;;;;;12.50;10.75;;;;;21.03;100.00;98760.84;4967847;28;45522;-63
2023/07/24 05:36:03;;;;;;;;;16.00;15.25;;;;;21.11;100.00;98751.16;4971141;28;45552;-63
2023/07/24 05:38:28;;;;;;;;;19.25;18.25;;;;;21.21;100.00;98748.50;4968209;28;48610;-63
2023/07/24 05:41:02;;;;;;;;;18.75;18.25;;;;;21.25;100.00;98709.72;4971643;28;45345;-63
2023/07/24 05:43:29;;;;;;;;;19.25;17.50;;;;;21.27;100.00;98706.91;4969050;28;45525;-62
2023/07/24 05:45:56;;;;;;;;;17.50;15.75;;;;;21.27;100.00;98734.56;4972069;28;45478;-62
2023/07/24 05:48:22;;;;;;;;;25.50;23.75;;;;;21.26;100.00;98828.53;4966712;28;45546;-62
2023/07/24 05:50:48;;;;;;;;;17.25;17.25;;;;;21.24;100.00;98813.44;4972013;28;45375;-62
2023/07/24 05:53:14;;;;;;;;;19.25;18.75;;;;;21.24;100.00;98758.97;4964460;28;45894;-62
2023/07/24 05:55:40;;;;;;;;;16.25;16.25;;;;;21.24;100.00;98675.84;4971551;28;45474;-61
2023/07/24 05:58:05;;;;;;;;;18.25;16.75;;;;;21.26;100.00;98632.81;4964745;28;46332;-62
2023/07/24 06:00:31;;;;;;;;;19.00;17.75;;;;;21.30;100.00;98663.69;4970009;28;45910;-62
2023/07/24 06:02:56;;;;;;;;;19.25;18.25;;;;;21.34;100.00;98676.69;4966503;28;45516;-62
2023/07/24 06:05:21;;;;;;;;;19.25;12.50;;;;;21.38;100.00;98669.22;4969764;28;45561;-63
2023/07/24 06:07:47;;;;;;;;;17.50;15.50;;;;;21.42;100.00;98643.81;4964701;28;45476;-62
2023/07/24 06:10:13;;;;;;;;;18.50;18.50;;;;;21.46;100.00;98654.09;4971374;28;45359;-62
2023/07/24 06:12:38;;;;;;;;;17.50;15.50;;;;;21.52;100.00;98663.44;4969181;28;45487;-63
2023/07/24 06:15:04;;;;;;;;;18.75;17.75;;;;;21.56;100.00;98652.28;4969154;28;45555;-63
2023/07/24 06:17:30;;;;;;;;;17.50;16.00;;;;;21.63;100.00;98635.59;4966063;28;45442;-63
2023/07/24 06:19:56;;;;;;;;;16.50;16.50;;;;;21.71;100.00;98614.28;4970936;28;45392;-63
2023/07/24 06:22:22;;;;;;;;;10.50;10.50;;;;;21.81;100.00;98620.47;4968389;28;45506;-63
2023/07/24 06:24:47;;;;;;;;;17.25;16.25;;;;;21.88;100.00;98648.44;4969300;28;45551;-63
2023/07/24 06:27:12;;;;;;;;;18.00;18.00;;;;;21.98;100.00;98638.50;4968956;28;46047;-63
2023/07/24 06:29:38;;;;;;;;;17.00;15.00;;;;;22.03;100.00;98605.91;4969840;28;45381;-63
2023/07/24 06:32:04;;;;;;;;;14.25;14.25;;;;;22.09;100.00;98619.59;4971170;28;45501;-63
2023/07/24 06:34:29;;;;;;;;;14.50;13.00;;;;;22.17;100.00;98610.78;4971698;28;45552;-63
2023/07/24 06:36:54;;;;;;;;;19.25;15.75;;;;;22.24;100.00;98619.97;4971144;28;45502;-63
2023/07/24 06:39:20;;;;;;;;;17.75;14.50;;;;;22.30;100.00;98624.72;4972675;28;45414;-63
2023/07/24 06:41:46;;;;;;;;;19.25;15.00;;;;;22.36;100.00;98636.72;4971677;28;45522;-63
2023/07/24 06:44:11;;;;;;;;;15.75;15.00;;;;;22.39;100.00;98613.09;4972306;28;45494;-64
2023/07/24 06:46:36;;;;;;;;;18.25;16.75;;;;;22.44;100.00;98599.25;4973322;28;45561;-64
2023/07/24 06:49:02;;;;;;;;;18.75;16.25;;;;;22.48;100.00;98598.78;4968799;28;45569;-64
2023/07/24 06:51:27;;;;;;;;;15.00;12.50;;;;;22.52;100.00;98597.47;4973339;28;45422;-64
2023/07/24 06:53:53;;;;;;;;;19.50;15.00;;;;;22.56;100.00;98598.03;4969313;28;45486;-65
2023/07/24 06:56:18;;;;;;;;;12.50;12.25;;;;;22.61;100.00;98591.22;4973320;28;45980;-64
2023/07/24 06:58:43;;;;;;;;;15.25;14.50;;;;;22.67;100.00;98595.13;4967116;28;45568;-64
2023/07/24 07:01:09;;;;;;;;;12.75;12.75;;;;;22.72;100.00;98598.22;4973512;28;45667;-63
2023/07/24 07:03:37;;;;;;;;;19.00;15.50;;;;;22.75;100.00;98597.94;4967174;28;45366;-64
2023/07/24 07:06:03;;;;;;;;;13.75;13.25;;;;;22.75;100.00;98592.56;4972285;28;46560;-63
2023/07/24 07:08:29;;;;;;;;;15.25;15.25;;;;;22.79;100.00;98593.13;4965304;28;45557;-63
2023/07/24 07:11:00;;;;;;;;;16.25;14.00;;;;;22.83;100.00;98581.06;4973963;28;45470;-62
2023/07/24 07:13:26;;;;;;;;;17.50;17.25;;;;;22.89;100.00;98592.06;4969408;28;45387;-61
2023/07/24 07:15:51;;;;;;;;;16.25;16.00;;;;;22.96;100.00;98608.41;4968851;28;46537;-62
2023/07/24 07:18:17;;;;;;;;;16.00;15.75;;;;;23.01;100.00;98603.44;4968965;28;45492;-62
2023/07/24 07:20:50;;;;;;;;;15.75;14.75;;;;;23.07;100.00;98600.16;4973407;28;45533;-64
2023/07/24 07:23:15;;;;;;;;;18.50;15.50;;;;;;;;4967497;28;45399;-63
2023/07/24 07:25:43;;;;;;;;;17.25;14.75;;;;;23.14;100.00;98600.34;4973780;28;45639;-63
2023/07/24 07:28:09;;;;;;;;;13.50;12.00;;;;;23.21;100.00;98626.50;4971624;28;45493;-62
2023/07/24 07:30:34;;;;;;;;;17.00;15.00;;;;;23.29;100.00;98617.69;4974244;28;45549;-61
2023/07/24 07:33:00;;;;;;;;;15.00;14.75;;;;;23.36;100.00;98607.13;4968646;28;45550;-63
2023/07/24 07:35:25;;;;;;;;;12.25;11.75;;;;;23.41;100.00;98610.22;4973572;28;45534;-61
2023/07/24 07:37:51;;;;;;;;;16.25;15.50;;;;;23.51;100.00;98619.03;4970746;28;45549;-61
2023/07/24 07:40:16;;;;;;;;;16.25;14.50;;;;;23.58;100.00;98604.00;4973593;28;45604;-62
2023/07/24 07:42:42;;;;;;;;;15.25;13.50;;;;;23.63;100.00;98582.81;4970301;28;45517;-62
2023/07/24 07:45:07;;;;;;;;;14.50;14.50;;;;;23.67;100.00;98574.28;4975843;28;47230;-62
2023/07/24 07:47:33;;;;;;;;;15.25;14.50;;;;;23.79;100.00;98590.19;4969385;28;45414;-62
2023/07/24 07:49:58;;;;;;;;;13.50;12.25;;;;;23.92;100.00;98594.16;4973014;28;45425;-62
2023/07/24 07:52:23;;;;;;;;;16.50;15.50;;;;;24.02;100.00;98599.41;4969344;28;45492;-61
2023/07/24 07:54:49;;;;;;;;;19.75;17.75;;;;;24.12;100.00;98592.09;4971498;28;45750;-62
2023/07/24 07:57:15;;;;;;;;;14.00;13.25;;;;;24.21;100.00;98566.84;4969848;28;45502;-63
2023/07/24 07:59:40;;;;;;;;;16.00;13.75;;;;;24.29;100.00;98558.88;4971452;28;45439;-62
2023/07/24 08:02:06;;;;;;;;;13.25;13.25;;;;;24.37;100.00;98551.81;4970523;28;45587;-62
2023/07/24 08:04:32;;;;;;;;;19.00;16.25;;;;;24.39;100.00;98549.78;4968611;28;45557;-62
2023/07/24 08:06:57;;;;;;;;;14.50;14.50;;;;;24.44;100.00;98556.41;4970946;28;45396;-62
2023/07/24 08:09:24;;;;;;;;;19.25;17.00;;;;;24.53;100.00;98565.34;4969018;28;45495;-62
2023/07/24 08:11:50;;;;;;;;;16.25;16.00;;;;;24.59;100.00;98553.91;4969911;28;45492;-62
2023/07/24 08:14:16;;;;;;;;;17.00;17.00;;;;;24.62;100.00;98542.81;4968586;28;46635;-63
2023/07/24 08:16:41;;;;;;;;;16.25;15.00;;;;;24.62;100.00;98527.47;4971761;28;45513;-62
2023/07/24 08:19:06;;;;;;;;;9.25;8.25;;;;;24.61;100.00;98522.25;4969035;28;45858;-62
2023/07/24 08:21:32;;;;;;;;;16.75;15.00;;;;;24.58;100.00;98526.13;4970340;28;45573;-62
2023/07/24 08:23:57;;;;;;;;;15.25;15.00;;;;;24.59;100.00;98514.31;4966888;28;46035;-61
2023/07/24 08:26:25;;;;;;;;;15.50;14.50;;;;;24.63;100.00;98512.16;4987240;28;45768;-61
2023/07/24 08:28:51;;;;;;;;;14.75;14.50;;;;;24.65;100.00;98520.88;4970209;28;45537;-61
2023/07/24 08:31:17;;;;;;;;;16.75;13.50;;;;;24.68;100.00;98507.09;4970127;28;45387;-61
2023/07/24 08:33:42;;;;;;;;;16.00;14.25;;;;;24.74;100.00;98508.28;4965738;28;48079;-62
2023/07/24 08:36:08;;;;;;;;;13.00;11.50;;;;;24.78;100.00;98515.03;4968611;28;45437;-61
2023/07/24 08:38:35;;;;;;;;;16.50;12.25;;;;;24.80;100.00;98524.63;4969003;28;45586;-61
2023/07/24 08:41:05;;;;;;;;;15.25;14.25;;;;;24.78;100.00;98512.34;4972075;28;45494;-62
2023/07/24 08:43:31;;;;;;;;;15.00;13.00;;;;;24.75;100.00;98515.38;4971798;28;45843;-63
2023/07/24 08:45:59;;;;;;;;;13.80;13.60;;;;;24.70;100.00;98523.94;4969108;28;45435;-61
2023/07/24 08:48:29;;;;;;;;;15.80;14.60;;;;;24.64;100.00;98552.38;4969264;28;45441;-63
2023/07/24 08:50:56;;;;;;;;;14.25;13.50;;;;;24.59;100.00;98554.75;4968184;28;45635;-60
2023/07/24 08:53:22;;;;;;;;;12.20;11.40;;;;;24.54;100.00;98537.38;4969317;28;45475;-61
2023/07/24 08:55:51;;;;;;;;;11.00;10.20;;;;;24.49;100.00;98520.84;4970694;28;45364;-62
2023/07/24 08:58:16;;;;;;;;;16.60;12.40;;;;;24.49;100.00;98529.78;4968181;28;45626;-62
2023/07/24 09:00:42;;;;;;;;;17.75;14.50;;;;;24.55;100.00;98521.03;4970471;28;46029;-63
2023/07/24 09:03:08;;;;;;;;;12.50;11.50;;;;;24.62;100.00;98513.16;4965238;28;45497;-63
2023/07/24 09:05:33;;;;;;;;;12.40;10.80;;;;;24.75;100.00;98508.13;4969890;28;45461;-61
2023/07/24 09:07:59;;;;;;;;;11.25;11.25;;;;;24.95;100.00;98506.00;4965389;28;45515;-61
2023/07/24 09:10:25;;;;;;;;;13.25;12.00;;;;;25.14;100.00;98512.88;4972079;28;45557;-63
2023/07/24 09:12:51;;;;;;;;;13.80;11.40;;;;;25.26;100.00;98515.09;4966640;28;45694;-62
2023/07/24 09:15:16;;;;;;;;;11.75;10.75;;;;;25.39;100.00;98526.22;4971330;28;45500;-59
2023/07/24 09:17:52;;;;;;;;;13.50;12.00;;;;;25.48;100.00;98526.19;4969010;28;45435;-61
2023/07/24 09:20:19;;;;;;;;;11.25;10.25;;;;;25.58;100.00;98521.47;4971893;28;45593;-61
2023/07/24 09:22:50;;;;;;;;;20.00;12.50;;;;;25.75;100.00;98525.03;4964968;28;46435;-62
2023/07/24 09:25:15;;;;;;;;;12.80;11.00;;;;;25.91;100.00;98549.28;4969975;28;45493;-60
2023/07/24 09:27:41;;;;;;;;;12.00;11.00;;;;;25.97;99.54;98551.31;4966247;28;45455;-60
2023/07/24 09:30:16;;;;;;;;;15.00;14.00;;;;;25.98;91.80;98561.91;4962448;28;45497;-62
2023/07/24 09:32:42;;;;;;;;;15.50;14.00;;;;;25.78;84.35;98573.28;4965724;28;45578;-62
2023/07/24 09:35:20;;;;;;;;;16.75;15.25;;;;;25.51;85.28;98575.28;4971412;28;45446;-62
2023/07/24 09:37:46;;;;;;;;;15.00;14.25;;;;;25.26;91.18;98569.06;4969646;28;45426;-62
2023/07/24 09:40:14;;;;;;;;;14.00;13.00;;;;;25.07;87.24;98557.75;4984276;28;46059;-62
2023/07/24 09:42:40;;;;;;;;;14.75;13.25;;;;;24.98;95.71;98541.53;4967923;28;46595;-62
2023/07/24 09:45:08;;;;;;;;;16.75;15.00;;;;;25.06;94.09;98534.47;4972188;28;45395;-62
2023/07/24 09:47:34;;;;;;;;;12.20;10.20;;;;;25.11;92.98;98537.53;4969691;28;45550;-62
2023/07/24 09:50:02;;;;;;;;;12.50;12.50;;;;;25.17;95.39;98518.78;4971666;28;45486;-62
2023/07/24 09:52:30;;;;;;;;;14.00;13.00;;;;;25.33;93.13;98524.19;4964612;28;45517;-62
2023/07/24 09:54:59;;;;;;;;;10.20;10.20;;;;;25.47;91.25;98529.94;4971036;28;45443;-62
2023/07/24 09:57:26;;;;;;;;;16.50;13.00;;;;;25.53;89.25;98527.38;4968368;28;45391;-62
2023/07/24 09:59:56;;;;;;;;;16.00;14.50;;;;;25.57;90.44;98523.34;4968173;28;45493;-62
2023/07/24 10:02:22;;;;;;;;;15.25;15.00;;;;;25.67;90.25;98528.56;4968097;28;46329;-62
2023/07/24 10:04:48;;;;;;;;;12.00;11.60;;;;;25.75;89.46;98530.41;4968989;28;45376;-62
2023/07/24 10:07:15;;;;;;;;;15.75;14.25;;;;;25.81;85.71;98538.66;4971919;28;45430;-57
2023/07/24 10:09:43;;;;;;;;;16.75;11.50;;;;;25.85;87.07;98539.16;4965774;28;45585;-56
2023/07/24 10:12:09;;;;;;;;;15.20;13.60;;;;;25.89;86.67;98546.75;4972654;28;46519;-58
2023/07/24 10:14:35;;;;;;;;;14.00;14.00;;;;;25.94;86.79;98538.16;4972808;28;45491;-58
2023/07/24 10:17:01;;;;;;;;;15.25;15.25;;;;;25.96;90.19;98530.72;4971455;28;45430;-57
2023/07/24 10:19:44;;;;;;;;;15.75;13.50;;;;;26.01;89.14;98539.97;4974003;28;45511;-57
2023/07/24 10:22:18;;;;;;;;;13.50;13.50;;;;;26.10;89.44;98540.78;4973062;28;46645;-58
2023/07/24 10:24:44;;;;;;;;;13.80;13.80;;;;;26.18;86.96;98539.91;4972400;28;45463;-58
2023/07/24 10:27:10;;;;;;;;;17.50;14.00;;;;;26.24;87.69;98531.97;4972805;28;45453;-57
2023/07/24 10:29:36;;;;;;;;;14.75;13.25;;;;;26.36;87.67;98537.84;4970697;28;45353;-57
2023/07/24 10:32:02;;;;;;;;;17.00;15.25;;;;;26.48;88.51;98544.53;4973144;28;46925;-58
2023/07/24 10:34:40;;;;;;;;;13.25;11.50;;;;;26.63;86.64;98537.38;4974416;28;45470;-57
2023/07/24 10:37:08;;;;;;;;;14.75;11.75;;;;;26.79;86.86;98532.91;4972810;28;45524;-57
2023/07/24 10:39:39;;;;;;;;;13.50;13.50;;;;;26.95;85.97;98519.28;4974718;28;45554;-58
2023/07/24 10:42:06;;;;;;;;;11.00;10.60;;;;;27.07;86.39;98523.25;4974823;28;46567;-58
2023/07/24 10:44:32;;;;;;;;;14.80;13.00;;;;;27.17;85.58;98529.25;4965870;28;45526;-58
2023/07/24 10:46:57;;;;;;;;;13.25;13.25;;;;;27.30;84.12;98528.66;4973231;28;45530;-58
2023/07/24 10:49:24;;;;;;;;;13.75;12.75;;;;;27.44;82.98;98514.31;4974469;28;45414;-56
2023/07/24 10:51:57;;;;;;;;;14.20;14.20;;;;;27.59;83.57;98517.94;4973549;28;45515;-57
2023/07/24 10:54:23;;;;;;;;;12.20;11.20;;;;;27.74;82.67;98507.13;4974446;28;45514;-57
2023/07/24 10:56:48;;;;;;;;;12.25;11.75;;;;;27.87;81.31;98501.88;4974596;28;45557;-57
2023/07/24 10:59:14;;;;;;;;;8.50;7.25;;;;;27.94;81.99;98497.41;4973746;28;45454;-57
2023/07/24 11:01:40;;;;;;;;;10.60;10.60;;;;;27.98;80.64;98496.03;4973654;28;46645;-58
2023/07/24 11:04:06;;;;;;;;;10.60;10.20;;;;;28.03;80.38;98488.16;4974393;28;45442;-57
2023/07/24 11:06:32;;;;;;;;;10.00;8.40;;;;;28.07;79.66;98481.31;4973985;28;45507;-57
2023/07/24 11:09:00;;;;;;;;;12.50;11.25;;;;;28.19;80.22;98472.69;4973664;28;45576;-58
2023/07/24 11:11:33;;;;;;;;;12.00;10.00;;;;;28.25;79.29;98467.41;4973765;28;46620;-58